createdAt,value
2022-09-26T00:01:36.297Z,14.56
2022-09-26T00:04:10.173Z,14.55
2022-09-26T00:06:38.009Z,14.50
2022-09-26T00:09:06.750Z,14.50
2022-09-26T00:11:34.942Z,14.44
2022-09-26T00:14:07.414Z,14.42
2022-09-26T00:16:35.437Z,14.38
2022-09-26T00:19:03.320Z,14.39
2022-09-26T00:21:31.609Z,14.36
2022-09-26T00:24:00.469Z,14.30
2022-09-26T00:26:30.937Z,14.27
2022-09-26T00:29:00.945Z,14.26
2022-09-26T00:31:31.018Z,14.15
2022-09-26T00:33:59.572Z,14.21
2022-09-26T00:36:37.638Z,14.17
2022-09-26T00:39:07.907Z,14.15
2022-09-26T00:41:36.280Z,14.13
2022-09-26T00:44:24.000Z,14.11
2022-09-26T00:46:52.052Z,14.11
2022-09-26T00:49:32.605Z,14.06
2022-09-26T00:52:14.687Z,14.10
2022-09-26T00:54:45.704Z,14.12
2022-09-26T00:57:17.878Z,14.08
2022-09-26T00:59:54.458Z,14.12
2022-09-26T01:02:25.959Z,14.12
2022-09-26T01:04:54.632Z,14.15
2022-09-26T01:07:26.111Z,14.11
2022-09-26T01:09:55.088Z,14.14
2022-09-26T01:12:23.292Z,14.15
2022-09-26T01:14:53.690Z,14.12
2022-09-26T01:17:24.644Z,14.17
2022-09-26T01:20:28.155Z,14.17
2022-09-26T01:23:39.967Z,14.21
2022-09-26T01:26:22.536Z,14.24
2022-09-26T01:29:35.100Z,14.26
2022-09-26T01:32:30.418Z,14.27
2022-09-26T01:35:12.780Z,14.29
2022-09-26T01:38:16.987Z,14.29
2022-09-26T01:41:03.476Z,14.30
2022-09-26T01:43:43.471Z,14.32
2022-09-26T01:46:35.209Z,14.35
2022-09-26T01:49:19.252Z,14.39
2022-09-26T01:52:00.694Z,14.44
2022-09-26T01:54:36.506Z,14.45
2022-09-26T01:57:08.954Z,14.44
2022-09-26T01:59:46.873Z,14.47
2022-09-26T02:02:22.166Z,14.48
2022-09-26T02:04:57.189Z,14.50
2022-09-26T02:07:35.717Z,14.51
2022-09-26T02:10:14.077Z,14.52
2022-09-26T02:12:45.932Z,14.53
2022-09-26T02:15:20.073Z,14.55
2022-09-26T02:17:56.066Z,14.54
2022-09-26T02:20:31.282Z,14.57
2022-09-26T02:23:03.612Z,14.61
2022-09-26T02:25:31.920Z,14.63
2022-09-26T02:27:59.464Z,14.67
2022-09-26T02:30:27.467Z,14.69
2022-09-26T02:32:56.271Z,14.69
2022-09-26T02:35:43.138Z,14.68
2022-09-26T02:38:12.266Z,14.66
2022-09-26T02:40:51.224Z,14.72
2022-09-26T02:43:31.206Z,14.72
2022-09-26T02:46:27.220Z,14.71
2022-09-26T02:49:30.249Z,14.71
2022-09-26T02:52:04.771Z,14.72
2022-09-26T02:55:09.633Z,14.73
2022-09-26T02:57:37.654Z,14.75
2022-09-26T03:00:17.588Z,14.75
2022-09-26T03:03:10.731Z,14.75
2022-09-26T03:05:41.970Z,14.71
2022-09-26T03:08:15.880Z,14.73
2022-09-26T03:10:45.453Z,14.72
2022-09-26T03:13:17.114Z,14.74
2022-09-26T03:15:51.869Z,14.75
2022-09-26T03:18:26.228Z,14.77
2022-09-26T03:20:54.972Z,14.75
2022-09-26T03:23:24.249Z,14.76
2022-09-26T03:26:13.885Z,14.78
2022-09-26T03:28:45.058Z,14.77
2022-09-26T03:31:13.092Z,14.76
2022-09-26T03:33:40.909Z,14.74
2022-09-26T03:36:09.521Z,14.77
2022-09-26T03:38:38.928Z,14.77
2022-09-26T03:41:09.207Z,14.77
2022-09-26T03:43:39.012Z,14.78
2022-09-26T03:46:07.526Z,14.81
2022-09-26T03:48:36.036Z,14.78
2022-09-26T03:51:13.197Z,14.82
2022-09-26T03:53:43.545Z,14.80
2022-09-26T03:56:14.911Z,14.77
2022-09-26T03:58:42.948Z,14.76
2022-09-26T04:01:13.780Z,14.77
2022-09-26T04:03:49.349Z,14.77
2022-09-26T04:06:20.237Z,14.78
2022-09-26T04:08:50.805Z,14.75
2022-09-26T04:11:21.953Z,14.77
2022-09-26T04:13:52.441Z,14.77
2022-09-26T04:16:23.165Z,14.77
2022-09-26T04:18:57.323Z,14.77
2022-09-26T04:21:27.680Z,14.78
2022-09-26T04:23:56.461Z,14.74
2022-09-26T04:26:24.785Z,14.78
2022-09-26T04:28:56.106Z,14.78
2022-09-26T04:31:27.680Z,14.77
2022-09-26T04:33:56.760Z,14.78
2022-09-26T04:36:24.554Z,14.79
2022-09-26T04:38:52.528Z,14.79
2022-09-26T04:41:21.959Z,14.76
2022-09-26T04:43:50.183Z,14.66
2022-09-26T04:46:23.723Z,14.67
2022-09-26T04:48:57.058Z,14.60
2022-09-26T04:51:26.841Z,14.50
2022-09-26T04:53:55.077Z,14.61
2022-09-26T04:56:25.223Z,14.63
2022-09-26T04:58:54.709Z,14.63
2022-09-26T05:01:23.569Z,14.65
2022-09-26T05:03:51.925Z,14.63
2022-09-26T05:06:19.296Z,14.54
2022-09-26T05:08:48.463Z,14.20
2022-09-26T05:11:18.260Z,14.14
2022-09-26T05:13:50.137Z,14.29
2022-09-26T05:16:21.466Z,14.24
2022-09-26T05:18:52.683Z,14.15
2022-09-26T05:21:21.439Z,13.93
2022-09-26T05:24:07.823Z,13.94
2022-09-26T05:26:42.855Z,13.91
2022-09-26T05:29:12.017Z,14.13
2022-09-26T05:31:41.113Z,14.38
2022-09-26T05:34:19.190Z,14.64
2022-09-26T05:36:47.951Z,14.83
2022-09-26T05:39:45.413Z,14.84
2022-09-26T05:42:13.727Z,14.90
2022-09-26T05:44:41.739Z,14.95
2022-09-26T05:47:09.919Z,14.93
2022-09-26T05:49:38.383Z,14.96
2022-09-26T05:52:06.532Z,14.85
2022-09-26T05:54:34.510Z,15.10
2022-09-26T05:57:05.899Z,15.02
2022-09-26T05:59:36.267Z,14.58
2022-09-26T06:02:07.818Z,14.69
2022-09-26T06:04:36.453Z,14.35
2022-09-26T06:07:06.950Z,14.30
2022-09-26T06:09:34.343Z,14.12
2022-09-26T06:12:03.054Z,14.30
2022-09-26T06:14:32.041Z,14.70
2022-09-26T06:16:59.407Z,14.77
2022-09-26T06:19:27.076Z,14.49
2022-09-26T06:21:54.512Z,14.59
2022-09-26T06:24:22.819Z,14.51
2022-09-26T06:26:51.657Z,14.67
2022-09-26T06:29:19.985Z,14.74
2022-09-26T06:31:47.523Z,14.58
2022-09-26T06:34:18.327Z,14.53
2022-09-26T06:36:47.573Z,14.55
2022-09-26T06:39:15.870Z,14.39
2022-09-26T06:41:45.920Z,14.39
2022-09-26T06:44:14.007Z,14.42
2022-09-26T06:46:48.694Z,14.75
2022-09-26T06:49:16.866Z,14.70
2022-09-26T06:51:46.870Z,14.58
2022-09-26T06:54:14.391Z,14.57
2022-09-26T06:56:42.144Z,14.85
2022-09-26T06:59:10.882Z,14.97
2022-09-26T07:01:39.073Z,14.74
2022-09-26T07:04:08.072Z,14.75
2022-09-26T07:06:36.556Z,14.89
2022-09-26T07:09:09.776Z,15.14
2022-09-26T07:12:09.869Z,15.43
2022-09-26T07:14:28.907Z,15.69
2022-09-26T07:16:57.506Z,15.26
2022-09-26T07:19:25.277Z,15.36
2022-09-26T07:21:52.907Z,15.40
2022-09-26T07:24:21.370Z,15.31
2022-09-26T07:26:49.904Z,15.28
2022-09-26T07:29:18.208Z,15.18
2022-09-26T07:31:46.529Z,14.97
2022-09-26T07:34:18.409Z,14.68
2022-09-26T07:36:47.775Z,14.62
2022-09-26T07:39:15.630Z,15.17
2022-09-26T07:41:46.860Z,15.30
2022-09-26T07:47:22.826Z,15.25
2022-09-26T07:50:09.870Z,15.30
2022-09-26T07:52:37.942Z,15.26
2022-09-26T07:55:09.931Z,15.35
2022-09-26T07:57:38.956Z,15.46
2022-09-26T08:00:18.804Z,15.52
2022-09-26T08:02:47.240Z,15.69
2022-09-26T08:05:20.150Z,15.73
2022-09-26T08:07:49.228Z,15.80
2022-09-26T08:10:21.975Z,15.94
2022-09-26T08:12:51.795Z,16.11
2022-09-26T08:15:20.345Z,16.14
2022-09-26T08:17:47.794Z,16.35
2022-09-26T08:20:15.541Z,16.41
2022-09-26T08:22:43.221Z,16.35
2022-09-26T08:25:11.356Z,16.34
2022-09-26T08:27:40.611Z,16.45
2022-09-26T08:30:10.454Z,16.46
2022-09-26T08:32:39.580Z,16.47
2022-09-26T08:35:12.283Z,16.47
2022-09-26T08:37:41.323Z,16.56
2022-09-26T08:40:11.428Z,16.64
2022-09-26T08:42:55.608Z,16.66
2022-09-26T08:46:21.290Z,16.64
2022-09-26T08:49:24.838Z,16.60
2022-09-26T08:51:54.468Z,16.51
2022-09-26T08:54:34.283Z,16.50
2022-09-26T08:57:23.496Z,16.45
2022-09-26T08:59:53.522Z,16.43
2022-09-26T09:02:59.201Z,16.28
2022-09-26T09:05:31.382Z,16.30
2022-09-26T09:08:03.016Z,16.28
2022-09-26T09:10:44.965Z,16.34
2022-09-26T09:13:31.624Z,16.38
2022-09-26T09:16:05.525Z,16.49
2022-09-26T09:19:09.172Z,16.46
2022-09-26T09:21:57.762Z,16.51
2022-09-26T09:24:51.737Z,16.50
2022-09-26T09:27:52.743Z,16.57
2022-09-26T09:30:43.578Z,16.47
2022-09-26T09:33:24.778Z,16.56
2022-09-26T09:35:59.636Z,16.65
2022-09-26T09:38:31.040Z,16.67
2022-09-26T09:41:07.735Z,16.79
2022-09-26T09:43:59.055Z,16.91
2022-09-26T09:46:29.510Z,16.99
2022-09-26T09:49:21.576Z,16.91
2022-09-26T09:52:01.502Z,16.94
2022-09-26T09:54:41.032Z,16.73
2022-09-26T09:57:26.469Z,16.96
2022-09-26T10:00:01.995Z,17.16
2022-09-26T10:02:31.804Z,16.98
2022-09-26T10:05:35.077Z,17.14
2022-09-26T10:08:04.625Z,17.22
2022-09-26T10:10:44.145Z,17.16
2022-09-26T10:13:14.485Z,17.36
2022-09-26T10:16:06.408Z,17.55
2022-09-26T10:19:02.348Z,17.89
2022-09-26T10:21:35.097Z,18.09
2022-09-26T10:24:04.775Z,18.22
2022-09-26T10:26:37.171Z,18.27
2022-09-26T10:29:21.296Z,18.25
2022-09-26T10:31:56.144Z,18.23
2022-09-26T10:34:30.565Z,18.50
2022-09-26T10:37:21.291Z,18.52
2022-09-26T10:40:16.819Z,18.57
2022-09-26T10:42:47.983Z,18.57
2022-09-26T10:45:17.997Z,18.64
2022-09-26T10:47:51.890Z,18.69
2022-09-26T10:50:29.420Z,18.58
2022-09-26T10:53:08.339Z,18.49
2022-09-26T10:55:55.559Z,18.48
2022-09-26T10:58:29.743Z,18.54
2022-09-26T11:01:00.740Z,18.41
2022-09-26T11:03:49.838Z,18.53
2022-09-26T11:06:35.809Z,18.44
2022-09-26T11:09:04.540Z,18.71
2022-09-26T11:11:36.755Z,18.89
2022-09-26T11:14:08.583Z,18.96
2022-09-26T11:16:53.967Z,18.87
2022-09-26T11:19:26.756Z,18.82
2022-09-26T11:22:14.555Z,18.68
2022-09-26T11:25:04.496Z,18.79
2022-09-26T11:27:46.084Z,18.82
2022-09-26T11:30:19.557Z,18.87
2022-09-26T11:32:55.258Z,18.68
2022-09-26T11:35:52.221Z,18.57
2022-09-26T11:38:42.131Z,18.49
2022-09-26T11:41:39.241Z,18.29
2022-09-26T11:44:07.834Z,18.13
2022-09-26T11:46:47.469Z,18.02
2022-09-26T11:49:22.867Z,18.23
2022-09-26T11:52:36.056Z,18.26
2022-09-26T11:55:18.855Z,18.27
2022-09-26T11:58:05.059Z,18.24
2022-09-26T12:00:35.151Z,18.26
2022-09-26T12:03:33.395Z,18.29
2022-09-26T12:06:21.724Z,18.36
2022-09-26T12:09:00.518Z,18.23
2022-09-26T12:11:57.087Z,18.36
2022-09-26T12:14:25.184Z,18.32
2022-09-26T12:17:18.789Z,18.23
2022-09-26T12:19:55.773Z,18.32
2022-09-26T12:22:41.605Z,18.27
2022-09-26T12:25:30.455Z,18.31
2022-09-26T12:28:19.801Z,18.42
2022-09-26T12:31:23.767Z,18.44
2022-09-26T12:34:08.040Z,18.57
2022-09-26T12:36:47.635Z,18.41
2022-09-26T12:39:39.111Z,18.45
2022-09-26T12:42:26.575Z,18.42
2022-09-26T12:45:18.759Z,18.54
2022-09-26T12:47:51.888Z,18.75
2022-09-26T12:50:31.984Z,19.14
2022-09-26T12:53:10.664Z,19.25
2022-09-26T12:56:07.304Z,19.04
2022-09-26T12:58:41.649Z,19.23
2022-09-26T13:01:34.124Z,19.48
2022-09-26T13:04:23.497Z,19.40
2022-09-26T13:07:22.577Z,19.51
2022-09-26T13:10:08.363Z,19.67
2022-09-26T13:13:06.228Z,19.84
2022-09-26T13:15:46.316Z,19.67
2022-09-26T13:18:26.520Z,19.56
2022-09-26T13:21:07.396Z,19.51
2022-09-26T13:24:01.252Z,19.48
2022-09-26T13:26:43.313Z,19.30
2022-09-26T13:29:20.757Z,19.07
2022-09-26T13:31:56.183Z,19.04
2022-09-26T13:34:34.877Z,18.91
2022-09-26T13:37:04.803Z,18.85
2022-09-26T13:39:52.259Z,18.91
2022-09-26T13:42:47.556Z,18.87
2022-09-26T13:45:49.032Z,18.91
2022-09-26T13:48:41.495Z,18.77
2022-09-26T13:51:21.830Z,18.60
2022-09-26T13:54:02.947Z,18.60
2022-09-26T13:56:31.320Z,18.59
2022-09-26T13:59:03.520Z,18.56
2022-09-26T14:01:31.247Z,18.60
2022-09-26T14:04:17.641Z,18.54
2022-09-26T14:07:28.827Z,18.47
2022-09-26T14:10:08.196Z,18.49
2022-09-26T14:13:08.419Z,18.53
2022-09-26T14:15:50.971Z,18.51
2022-09-26T14:18:45.030Z,18.51
2022-09-26T14:21:35.127Z,18.48
2022-09-26T14:24:20.820Z,18.12
2022-09-26T14:27:04.160Z,18.29
2022-09-26T14:29:42.401Z,18.38
2022-09-26T14:32:10.483Z,18.37
2022-09-26T14:34:57.030Z,18.31
2022-09-26T14:37:24.639Z,18.21
2022-09-26T14:40:10.446Z,18.23
2022-09-26T14:42:43.777Z,18.22
2022-09-26T14:45:17.022Z,18.15
2022-09-26T14:48:01.085Z,18.11
2022-09-26T14:50:34.458Z,17.94
2022-09-26T14:53:21.099Z,18.04
2022-09-26T14:56:06.123Z,17.94
2022-09-26T14:58:46.865Z,17.94
2022-09-26T15:01:19.648Z,17.90
2022-09-26T15:04:14.028Z,17.86
2022-09-26T15:06:48.853Z,17.86
2022-09-26T15:09:40.061Z,17.86
2022-09-26T15:12:21.191Z,17.83
2022-09-26T15:15:09.878Z,17.79
2022-09-26T15:17:41.447Z,17.77
2022-09-26T15:20:16.759Z,17.72
2022-09-26T15:22:44.990Z,17.67
2022-09-26T15:25:32.752Z,17.57
2022-09-26T15:28:01.340Z,17.52
2022-09-26T15:30:41.736Z,17.48
2022-09-26T15:33:17.587Z,17.44
2022-09-26T15:35:53.807Z,17.42
2022-09-26T15:38:23.812Z,17.38
2022-09-26T15:41:15.887Z,17.36
2022-09-26T15:43:43.311Z,17.25
2022-09-26T15:46:23.402Z,17.15
2022-09-26T15:48:51.947Z,17.19
2022-09-26T15:51:39.200Z,17.17
2022-09-26T15:54:16.076Z,17.15
2022-09-26T15:56:48.997Z,17.12
2022-09-26T15:59:40.682Z,17.09
2022-09-26T16:02:45.123Z,17.05
2022-09-26T16:05:14.356Z,17.02
2022-09-26T16:07:49.096Z,16.96
2022-09-26T16:10:29.617Z,16.72
2022-09-26T16:13:00.559Z,16.59
2022-09-26T16:15:30.249Z,16.54
2022-09-26T16:17:58.808Z,16.51
2022-09-26T16:33:27.740Z,17.20
2022-09-26T16:36:03.016Z,17.20
2022-09-26T16:38:35.657Z,16.54
2022-09-26T16:41:31.512Z,16.43
2022-09-26T16:44:23.849Z,16.45
2022-09-26T16:46:55.661Z,16.29
2022-09-26T16:49:39.825Z,16.26
2022-09-26T16:52:36.391Z,16.32
2022-09-26T16:55:08.923Z,16.31
2022-09-26T16:57:56.825Z,16.30
2022-09-26T17:00:49.976Z,16.28
2022-09-26T17:03:21.598Z,16.24
2022-09-26T17:05:49.578Z,16.25
2022-09-26T17:08:18.404Z,16.22
2022-09-26T17:10:46.509Z,16.05
2022-09-26T17:13:26.361Z,15.97
2022-09-26T17:15:56.285Z,15.89
2022-09-26T17:18:32.391Z,15.99
2022-09-26T17:21:00.290Z,15.99
2022-09-26T17:23:44.568Z,15.89
2022-09-26T17:26:19.526Z,15.84
2022-09-26T17:28:47.636Z,15.86
2022-09-26T17:31:20.987Z,15.81
2022-09-26T17:33:52.273Z,15.80
2022-09-26T17:36:26.111Z,15.73
2022-09-26T17:38:54.706Z,15.65
2022-09-26T17:41:23.090Z,15.73
2022-09-26T17:43:58.488Z,15.66
2022-09-26T17:46:27.087Z,15.55
2022-09-26T17:48:56.375Z,15.58
2022-09-26T17:51:24.352Z,15.57
2022-09-26T17:53:52.558Z,15.63
2022-09-26T17:56:20.449Z,15.65
2022-09-26T17:58:49.516Z,15.69
2022-09-26T18:01:26.412Z,15.73
2022-09-26T18:04:00.436Z,15.72
2022-09-26T18:06:31.476Z,15.68
2022-09-26T18:09:05.430Z,15.68
2022-09-26T18:11:34.736Z,15.66
2022-09-26T18:14:04.477Z,15.63
2022-09-26T18:16:31.877Z,15.51
2022-09-26T18:19:04.713Z,15.57
2022-09-26T18:21:35.757Z,15.60
2022-09-26T18:24:06.649Z,15.61
2022-09-26T18:26:47.138Z,15.52
2022-09-26T18:29:35.738Z,15.50
2022-09-26T18:32:11.853Z,15.48
2022-09-26T18:34:39.347Z,15.55
2022-09-26T18:37:08.609Z,15.44
2022-09-26T18:39:36.361Z,15.46
2022-09-26T18:42:09.302Z,15.39
2022-09-26T18:44:37.276Z,15.51
2022-09-26T18:47:11.092Z,15.44
2022-09-26T18:49:38.981Z,15.26
2022-09-26T18:52:12.583Z,15.42
2022-09-26T18:54:43.958Z,15.43
2022-09-26T18:57:31.103Z,15.43
2022-09-26T19:00:03.368Z,15.44
2022-09-26T19:02:38.369Z,15.43
2022-09-26T19:05:07.888Z,15.44
2022-09-26T19:07:35.652Z,15.43
2022-09-26T19:10:03.377Z,15.40
2022-09-26T19:12:31.577Z,15.37
2022-09-26T19:14:59.024Z,15.33
2022-09-26T19:17:26.513Z,15.31
2022-09-26T19:19:54.312Z,15.31
2022-09-26T19:22:21.739Z,15.30
2022-09-26T19:24:56.041Z,15.28
2022-09-26T19:27:28.915Z,15.29
2022-09-26T19:30:17.384Z,15.27
2022-09-26T19:32:50.523Z,15.26
2022-09-26T19:35:30.205Z,15.27
2022-09-26T19:37:59.546Z,15.20
2022-09-26T19:40:27.983Z,15.18
2022-09-26T19:42:57.179Z,15.19
2022-09-26T19:45:26.635Z,15.19
2022-09-26T19:47:55.780Z,15.22
2022-09-26T19:50:25.722Z,15.19
2022-09-26T19:52:55.323Z,15.17
2022-09-26T19:55:25.658Z,15.16
2022-09-26T19:57:56.053Z,15.14
2022-09-26T20:00:23.926Z,15.09
2022-09-26T20:02:52.787Z,15.04
2022-09-26T20:05:23.300Z,15.01
2022-09-26T20:07:51.676Z,14.92
2022-09-26T20:10:22.623Z,14.85
2022-09-26T20:12:50.192Z,14.84
2022-09-26T20:15:22.364Z,14.83
2022-09-26T20:17:50.917Z,14.79
2022-09-26T20:20:25.143Z,14.74
2022-09-26T20:22:55.032Z,14.69
2022-09-26T20:25:27.019Z,14.66
2022-09-26T20:27:55.891Z,14.63
2022-09-26T20:30:42.560Z,14.61
2022-09-26T20:33:11.051Z,14.58
2022-09-26T20:35:43.229Z,14.54
2022-09-26T20:38:25.892Z,14.53
2022-09-26T20:41:34.592Z,14.41
2022-09-26T20:44:06.383Z,14.27
2022-09-26T20:46:38.023Z,14.25
2022-09-26T20:49:16.184Z,14.02
2022-09-26T20:51:44.733Z,14.00
2022-09-26T20:54:32.735Z,13.93
2022-09-26T20:57:01.374Z,13.83
2022-09-26T20:59:29.261Z,13.87
2022-09-26T21:01:57.535Z,13.83
2022-09-26T21:04:31.629Z,13.75
2022-09-26T21:06:59.529Z,13.74
2022-09-26T21:09:27.015Z,13.43
2022-09-26T21:11:54.504Z,13.37
2022-09-26T21:14:22.347Z,13.27
2022-09-26T21:16:52.145Z,13.16
2022-09-26T21:19:22.744Z,13.22
2022-09-26T21:21:52.044Z,13.34
2022-09-26T21:24:41.988Z,13.44
2022-09-26T21:27:13.269Z,13.40
2022-09-26T21:29:41.728Z,13.18
2022-09-26T21:32:16.968Z,12.93
2022-09-26T21:34:58.432Z,12.98
2022-09-26T21:37:25.988Z,12.92
2022-09-26T21:39:54.171Z,12.84
2022-09-26T21:42:21.886Z,12.77
2022-09-26T21:44:56.916Z,12.70
2022-09-26T21:47:24.750Z,12.83
2022-09-26T21:49:53.503Z,12.91
2022-09-26T21:52:37.052Z,12.97
2022-09-26T21:55:07.979Z,12.87
2022-09-26T21:57:41.649Z,12.88
2022-09-26T22:00:11.390Z,12.86
2022-09-26T22:02:41.755Z,12.74
2022-09-26T22:05:11.732Z,12.76
2022-09-26T22:07:39.248Z,12.85
2022-09-26T22:10:08.144Z,12.73
2022-09-26T22:12:35.985Z,12.50
2022-09-26T22:15:04.161Z,12.50
2022-09-26T22:17:31.844Z,12.59
2022-09-26T22:19:59.748Z,12.68
2022-09-26T22:22:27.260Z,12.59
2022-09-26T22:24:54.713Z,12.46
2022-09-26T22:27:22.475Z,12.46
2022-09-26T22:29:50.094Z,12.52
2022-09-26T22:32:17.544Z,12.37
2022-09-26T22:34:45.363Z,12.18
2022-09-26T22:37:12.877Z,12.27
2022-09-26T22:39:40.521Z,12.15
2022-09-26T22:42:08.437Z,12.06
2022-09-26T22:44:35.905Z,12.22
2022-09-26T22:47:03.674Z,12.23
2022-09-26T22:49:31.987Z,12.23
2022-09-26T22:52:00.368Z,12.04
2022-09-26T22:54:27.812Z,11.85
2022-09-26T22:56:55.880Z,11.76
2022-09-26T22:59:23.509Z,11.74
2022-09-26T23:01:51.730Z,11.87
2022-09-26T23:04:19.616Z,11.99
2022-09-26T23:06:47.016Z,12.08
2022-09-26T23:09:14.638Z,12.14
2022-09-26T23:11:43.158Z,12.18
2022-09-26T23:14:10.600Z,12.18
2022-09-26T23:16:38.486Z,12.24
2022-09-26T23:19:06.335Z,12.23
2022-09-26T23:21:33.844Z,12.20
2022-09-26T23:24:01.575Z,12.01
2022-09-26T23:26:31.838Z,12.03
2022-09-26T23:28:59.874Z,12.04
2022-09-26T23:31:28.357Z,12.02
2022-09-26T23:33:57.518Z,12.03
2022-09-26T23:36:25.352Z,11.95
2022-09-26T23:38:53.483Z,11.95
2022-09-26T23:41:22.277Z,11.93
2022-09-26T23:43:49.704Z,11.72
2022-09-26T23:46:17.365Z,11.73
2022-09-26T23:48:45.736Z,11.90
2022-09-26T23:51:13.267Z,11.85
2022-09-26T23:53:40.808Z,11.65
2022-09-26T23:56:11.169Z,11.75
2022-09-26T23:58:38.758Z,11.82
